Time;durP1;ratioP1;P1;durP2;ratioP2;P2;SDS_P1;SDS_P2;PMS_P1;PMS_P2;Temp;Humidity;BMP_temperature;BMP_pressure;BME280_temperature;BME280_humidity;BME280_pressure;Samples;Min_cycle;Max_cycle;Signal;HPM_P1;HPM_P2
2022/01/20 00:02:11;;;;;;;2.67;1.30;;;;;;;10.15;46.88;102578.91;5092687;28;20047;-71
2022/01/20 00:04:47;;;;;;;4.72;1.40;;;;;;;10.18;46.55;102576.44;5070854;28;20044;-72
2022/01/20 00:26:49;;;;;;;4.63;1.40;;;;;;;10.12;47.22;102569.94;5125516;27;20115;-72
2022/01/20 00:29:24;;;;;;;2.88;1.45;;;;;;;10.13;47.32;102569.09;5126005;27;20043;-72
2022/01/20 00:32:06;;;;;;;4.28;1.58;;;;;;;10.14;47.21;102574.47;5125119;27;20034;-72
2022/01/20 00:37:19;;;;;;;3.53;1.30;;;;;;;10.14;46.73;102557.72;5115331;28;20043;-72
2022/01/20 00:39:47;;;;;;;1.83;1.10;;;;;;;10.12;46.71;102549.72;5103354;28;20140;-72
2022/01/20 00:42:17;;;;;;;4.35;1.55;;;;;;;10.08;46.68;102547.78;5121228;27;20536;-72
2022/01/20 00:44:46;;;;;;;5.78;1.48;;;;;;;10.09;47.07;102551.34;5106273;27;20078;-72
2022/01/20 00:47:15;;;;;;;2.70;1.40;;;;;;;10.11;47.25;102557.59;5104371;28;20055;-71
2022/01/20 00:49:44;;;;;;;5.55;1.30;;;;;;;10.09;47.16;102549.63;5105549;28;20059;-72
2022/01/20 00:52:13;;;;;;;5.32;1.90;;;;;;;10.09;47.44;102556.63;5104718;28;20612;-71
2022/01/20 00:54:41;;;;;;;7.57;2.83;;;;;;;10.06;47.48;102554.72;5104829;28;20492;-72
2022/01/20 00:57:09;;;;;;;4.50;1.65;;;;;;;10.06;47.63;102552.09;5105800;28;20115;-72
2022/01/20 00:59:38;;;;;;;3.95;1.50;;;;;;;10.08;47.41;102555.72;5105805;28;20088;-71
2022/01/20 01:02:09;;;;;;;2.28;1.10;;;;;;;10.07;47.53;102551.25;5105523;28;20442;-72
2022/01/20 01:04:38;;;;;;;5.22;1.67;;;;;;;9.99;47.97;102544.72;5069599;28;20123;-72
2022/01/20 01:09:48;;;;;;;3.08;1.50;;;;;;;9.87;47.91;102552.97;5083797;28;20131;-72
2022/01/20 01:12:23;;;;;;;4.38;1.73;;;;;;;9.84;48.23;102550.22;5093072;28;20047;-72
2022/01/20 01:14:53;;;;;;;4.78;1.80;;;;;;;9.83;48.23;102547.50;5088539;28;20107;-72
2022/01/20 01:22:47;;;;;;;6.95;4.35;;;;;;;9.80;48.17;102542.06;5105242;28;20327;-72
2022/01/20 01:25:15;;;;;;;9.43;6.55;;;;;;;9.81;48.00;102544.78;5110468;28;20411;-72
2022/01/20 01:27:46;;;;;;;4.82;3.55;;;;;;;9.78;48.26;102538.47;5100689;28;20516;-72
2022/01/20 01:32:57;;;;;;;8.85;5.53;;;;;;;9.64;48.39;102536.91;5072382;28;20044;-72
2022/01/20 01:35:27;;;;;;;3.35;2.00;;;;;;;9.59;48.16;102544.56;5090684;28;20072;-72
2022/01/20 01:40:42;;;;;;;6.55;2.55;;;;;;;9.56;48.17;102524.25;5091440;28;20624;-72
2022/01/20 01:43:18;;;;;;;6.45;2.75;;;;;;;9.53;47.73;102529.38;5090503;28;20050;-72
2022/01/20 01:45:48;;;;;;;5.40;2.67;;;;;;;9.52;47.81;102526.63;5100338;28;20057;-72
2022/01/20 01:48:18;;;;;;;8.38;4.47;;;;;;;9.51;47.87;102530.13;5096444;28;20046;-72
2022/01/20 01:50:46;;;;;;;9.73;3.00;;;;;;;9.50;47.89;102526.59;5090205;28;20046;-72
2022/01/20 01:53:16;;;;;;;7.50;2.40;;;;;;;9.50;47.68;102530.97;5089551;28;20040;-72
2022/01/20 01:55:44;;;;;;;5.38;2.08;;;;;;;9.45;48.00;102535.97;5100252;28;20037;-72
2022/01/20 01:58:12;;;;;;;10.15;5.15;;;;;;;9.40;47.90;102534.88;5077763;28;20044;-72
2022/01/20 02:00:53;;;;;;;8.55;3.53;;;;;;;9.37;48.06;102526.84;5106573;28;20406;-72
2022/01/20 02:03:21;;;;;;;12.38;4.93;;;;;;;9.34;48.24;102520.50;5090522;28;20376;-72
2022/01/20 02:06:17;;;;;;;10.18;3.63;;;;;;;9.33;48.05;102511.69;5090037;28;20067;-72
2022/01/20 02:08:55;;;;;;;8.82;2.95;;;;;;;9.30;48.26;102519.44;5089279;28;20051;-72
2022/01/20 02:19:51;;;;;;;9.32;3.95;;;;;;;9.12;48.18;102510.66;5089413;28;20689;-72
2022/01/20 02:22:31;;;;;;;8.15;3.75;;;;;;;9.06;48.67;102507.69;5108178;27;20048;-72
2022/01/20 02:25:20;;;;;;;6.78;2.92;;;;;;;9.04;48.72;102514.63;5088671;28;20091;-72
2022/01/20 02:27:48;;;;;;;5.05;2.03;;;;;;;9.00;49.10;102510.00;5089199;28;20032;-72
2022/01/20 02:30:18;;;;;;;5.35;2.63;;;;;;;8.99;48.97;102506.47;5106070;28;20504;-72
2022/01/20 02:32:53;;;;;;;10.93;3.70;;;;;;;8.99;49.38;102508.22;5087525;28;20036;-72
2022/01/20 02:35:23;;;;;;;11.40;3.80;;;;;;;8.94;49.46;102514.97;5088757;28;20048;-72
2022/01/20 02:37:57;;;;;;;11.95;4.28;;;;;;;8.87;49.47;102513.75;5088962;28;20039;-71
2022/01/20 02:44:49;;;;;;;13.00;4.20;;;;;;;8.80;49.81;102512.53;5089649;28;20044;-72
2022/01/20 02:46:10;;;;;;;6.47;3.47;;;;;;;8.61;50.83;102520.34;5088872;28;20040;-72
2022/01/20 02:48:38;;;;;;;5.25;2.30;;;;;;;8.60;50.36;102510.63;5089358;28;20036;-72
2022/01/20 02:51:08;;;;;;;7.32;3.30;;;;;;;8.61;50.17;102509.81;5088172;28;20135;-71
2022/01/20 02:53:35;;;;;;;7.13;3.25;;;;;;;8.62;50.08;102511.63;5088742;28;20040;-72
2022/01/20 02:56:03;;;;;;;9.88;4.50;;;;;;;8.64;50.04;102503.81;5090131;28;20093;-73
2022/01/20 02:58:31;;;;;;;9.90;4.70;;;;;;;8.63;50.18;102508.16;5089010;28;20632;-72
2022/01/20 03:00:59;;;;;;;6.97;3.53;;;;;;;8.61;50.45;102517.69;5088898;28;20040;-72
2022/01/20 03:03:28;;;;;;;7.45;3.58;;;;;;;8.55;50.46;102519.09;5087838;28;20044;-72
2022/01/20 03:05:55;;;;;;;19.23;8.70;;;;;;;8.51;50.93;102522.41;5104550;28;20043;-72
2022/01/20 03:08:24;;;;;;;6.63;3.45;;;;;;;8.49;51.22;102519.69;5087733;28;20121;-72
2022/01/20 03:10:53;;;;;;;5.78;3.05;;;;;;;8.51;51.12;102515.44;5089640;28;20067;-72
2022/01/20 03:13:20;;;;;;;5.15;3.20;;;;;;;8.55;51.37;102512.13;5072011;28;20548;-72
2022/01/20 03:15:49;;;;;;;6.80;3.42;;;;;;;8.58;51.58;102512.28;5088507;28;20494;-72
2022/01/20 03:18:17;;;;;;;8.38;2.88;;;;;;;8.58;51.58;102516.66;5087804;28;20036;-72
2022/01/20 03:20:44;;;;;;;6.80;2.90;;;;;;;8.57;51.64;102512.19;5089623;28;20377;-72
2022/01/20 03:23:12;;;;;;;7.05;3.72;;;;;;;8.56;51.50;102515.66;5088055;28;20098;-71
2022/01/20 03:25:41;;;;;;;6.60;3.13;;;;;;;8.57;51.49;102507.84;5088034;28;20032;-72
2022/01/20 03:28:09;;;;;;;6.45;3.13;;;;;;;8.58;51.53;102508.75;5088496;28;20052;-72
2022/01/20 03:30:37;;;;;;;8.85;3.70;;;;;;;8.60;51.70;102512.38;5088052;28;20056;-72
2022/01/20 03:33:05;;;;;;;7.72;3.63;;;;;;;8.63;52.12;102504.63;5087692;28;20671;-72
2022/01/20 03:35:34;;;;;;;8.88;4.10;;;;;;;8.57;52.45;102499.94;5088080;28;20044;-72
2022/01/20 03:38:24;;;;;;;10.30;4.15;;;;;;;8.52;52.68;102492.66;5065853;28;20373;-72
2022/01/20 03:40:57;;;;;;;6.97;3.40;;;;;;;8.58;52.71;102507.03;5084805;28;20044;-72
2022/01/20 03:43:24;;;;;;;5.75;3.10;;;;;;;8.60;52.79;102510.63;5084731;28;20094;-72
2022/01/20 03:45:56;;;;;;;8.88;3.10;;;;;;;8.60;53.04;102515.00;5094547;28;20032;-72
2022/01/20 03:48:26;;;;;;;7.93;3.47;;;;;;;8.63;52.99;102510.78;5087859;28;20104;-72
2022/01/20 03:51:03;;;;;;;7.20;2.92;;;;;;;8.63;52.74;102512.53;5087872;28;20048;-72
2022/01/20 03:53:35;;;;;;;9.45;4.65;;;;;;;8.65;52.91;102517.06;5087708;28;20040;-72
2022/01/20 03:56:06;;;;;;;8.40;3.60;;;;;;;8.67;52.84;102519.72;5100544;28;20044;-72
2022/01/20 03:58:48;;;;;;;9.02;3.78;;;;;;;8.70;52.86;102515.56;5107992;28;20043;-72
2022/01/20 04:01:16;;;;;;;5.95;3.15;;;;;;;8.75;52.93;102515.78;5091538;28;20035;-72
2022/01/20 04:04:03;;;;;;;7.50;3.45;;;;;;;8.77;53.26;102519.41;5098333;27;20032;-72
2022/01/20 04:06:42;;;;;;;6.97;3.63;;;;;;;8.76;53.34;102518.50;5107278;28;20040;-72
2022/01/20 04:09:10;;;;;;;6.90;3.05;;;;;;;8.81;53.11;102531.88;5107762;28;20554;-72
2022/01/20 04:11:39;;;;;;;5.35;3.10;;;;;;;8.84;53.12;102533.78;5107862;28;20043;-71
2022/01/20 04:14:07;;;;;;;5.28;2.90;;;;;;;8.88;53.01;102530.47;5107846;28;20044;-72
2022/01/20 04:16:38;;;;;;;6.93;2.65;;;;;;;8.87;53.20;102539.19;5107913;27;20539;-72
2022/01/20 04:19:08;;;;;;;5.28;2.67;;;;;;;8.87;53.42;102532.19;5103395;28;20044;-73
2022/01/20 04:21:38;;;;;;;4.93;2.47;;;;;;;8.84;53.83;102533.78;5098850;28;20035;-72
2022/01/20 04:24:08;;;;;;;5.47;2.28;;;;;;;8.77;54.34;102529.94;5080072;28;20058;-72
2022/01/20 04:26:38;;;;;;;5.85;2.40;;;;;;;8.75;54.10;102526.31;5099117;28;20039;-73
2022/01/20 04:29:11;;;;;;;4.72;2.58;;;;;;;8.76;54.09;102529.03;5096522;28;20048;-72
2022/01/20 04:31:41;;;;;;;3.80;2.58;;;;;;;8.72;54.45;102526.16;5098974;28;20032;-72
2022/01/20 04:34:10;;;;;;;7.35;3.28;;;;;;;8.76;54.33;102533.38;5086598;28;20048;-73
2022/01/20 04:36:42;;;;;;;5.90;2.70;;;;;;;8.80;54.54;102541.50;5087645;28;20610;-72
2022/01/20 04:39:13;;;;;;;7.47;3.50;;;;;;;8.83;54.48;102543.41;5087424;28;20063;-72
2022/01/20 04:41:41;;;;;;;4.75;2.97;;;;;;;8.80;54.73;102540.59;5087123;28;20047;-72
2022/01/20 04:44:16;;;;;;;6.13;2.15;;;;;;;8.72;55.08;102539.34;5087240;28;20459;-72
2022/01/20 04:46:51;;;;;;;5.10;2.45;;;;;;;8.57;55.70;102534.16;5088927;28;20381;-72
2022/01/20 04:57:29;;;;;;;6.75;2.88;;;;;;;8.38;56.73;102534.94;5090970;28;20385;-72
2022/01/20 04:59:59;;;;;;;8.10;4.30;;;;;;;8.39;56.88;102535.84;5091168;28;20119;-72
2022/01/20 05:02:28;;;;;;;15.70;9.88;;;;;;;8.33;57.42;102533.81;5089925;28;20040;-72
2022/01/20 05:05:01;;;;;;;15.52;11.10;;;;;;;8.26;57.79;102533.34;5090916;28;20456;-72
2022/01/20 05:07:50;;;;;;;8.68;4.22;;;;;;;8.16;58.57;102536.28;5091890;28;20047;-72
2022/01/20 05:10:18;;;;;;;9.45;4.65;;;;;;;8.11;59.05;102537.78;5090335;28;20060;-72
2022/01/20 05:13:05;;;;;;;5.90;3.35;;;;;;;8.13;59.02;102531.78;5090889;28;20369;-72
2022/01/20 05:15:34;;;;;;;6.65;2.65;;;;;;;8.08;59.21;102537.59;5089941;28;20127;-72
2022/01/20 05:18:04;;;;;;;5.30;2.55;;;;;;;8.05;59.29;102532.19;5090965;28;20129;-72
2022/01/20 05:20:31;;;;;;;6.13;2.60;;;;;;;8.06;59.42;102545.44;5090637;28;20555;-72
2022/01/20 05:22:59;;;;;;;4.57;2.42;;;;;;;8.08;59.34;102542.84;5090569;28;20459;-72
2022/01/20 05:25:29;;;;;;;6.90;2.28;;;;;;;8.05;59.59;102543.63;5090533;28;20051;-72
2022/01/20 05:27:57;;;;;;;3.80;2.22;;;;;;;8.05;59.94;102535.72;5090527;28;20058;-72
2022/01/20 05:30:25;;;;;;;4.35;2.80;;;;;;;8.09;59.57;102544.66;5089677;28;20119;-72
2022/01/20 05:33:13;;;;;;;6.38;3.38;;;;;;;8.11;59.62;102541.31;5091262;28;20415;-73
2022/01/20 05:35:43;;;;;;;7.25;3.33;;;;;;;8.18;59.69;102551.34;5090385;28;20547;-72
2022/01/20 05:38:13;;;;;;;8.38;4.50;;;;;;;8.22;59.80;102544.50;5090382;28;20067;-72
2022/01/20 05:40:43;;;;;;;7.75;4.75;;;;;;;8.22;59.74;102541.88;5090460;28;20089;-72
2022/01/20 05:43:10;;;;;;;9.60;5.82;;;;;;;8.22;59.66;102545.41;5089781;28;20454;-72
2022/01/20 05:45:39;;;;;;;9.35;5.55;;;;;;;8.20;59.96;102546.19;5089780;28;20051;-72
2022/01/20 05:48:13;;;;;;;6.95;4.30;;;;;;;8.16;60.40;102546.81;5090224;28;20042;-72
2022/01/20 05:51:06;;;;;;;8.30;5.05;;;;;;;8.13;60.40;102552.84;5091086;28;20388;-73
2022/01/20 05:53:34;;;;;;;7.88;4.82;;;;;;;8.17;60.65;102551.25;5090421;28;20090;-72
2022/01/20 05:56:02;;;;;;;10.60;5.05;;;;;;;8.27;60.52;102546.56;5090513;28;20067;-72
2022/01/20 05:58:36;;;;;;;9.05;4.88;;;;;;;8.30;60.78;102543.19;5073277;28;20044;-72
2022/01/20 06:01:04;;;;;;;9.00;5.25;;;;;;;8.38;60.99;102545.47;5109679;28;20067;-72
2022/01/20 06:03:37;;;;;;;9.52;5.30;;;;;;;8.48;60.71;102554.72;5110335;28;20109;-72
2022/01/20 06:06:12;;;;;;;15.63;13.05;;;;;;;8.57;60.49;102547.31;5109642;28;20048;-72
2022/01/20 06:08:42;;;;;;;16.02;12.15;;;;;;;8.56;60.49;102553.41;5109813;27;20040;-72
2022/01/20 06:11:10;;;;;;;15.98;11.88;;;;;;;8.65;60.45;102550.38;5109974;27;20119;-73
2022/01/20 06:13:39;;;;;;;20.75;14.38;;;;;;;8.63;60.28;102552.91;5109944;27;20666;-72
2022/01/20 06:16:08;;;;;;;23.80;18.67;;;;;;;8.63;60.52;102550.28;5109775;28;20047;-72
2022/01/20 06:18:36;;;;;;;27.98;21.63;;;;;;;8.61;60.37;102541.38;5104700;28;20039;-72
2022/01/20 06:21:04;;;;;;;19.63;15.63;;;;;;;8.61;60.69;102536.13;5098363;28;20440;-72
2022/01/20 06:23:34;;;;;;;19.95;14.95;;;;;;;8.67;60.95;102536.44;5089640;28;20097;-72
2022/01/20 06:26:05;;;;;;;19.52;15.98;;;;;;;8.72;60.95;102540.25;5089504;28;20036;-72
2022/01/20 06:28:34;;;;;;;20.70;16.55;;;;;;;9.18;60.99;102532.03;5089718;28;20033;-72
2022/01/20 06:31:03;;;;;;;12.52;9.80;;;;;;;9.73;60.64;102542.59;5089152;28;20036;-72
2022/01/20 06:33:30;;;;;;;7.45;5.13;;;;;;;10.21;60.33;102539.66;5071720;28;20093;-72
2022/01/20 06:35:59;;;;;;;6.35;4.07;;;;;;;10.58;59.56;102544.81;5109589;28;20043;-72
2022/01/20 06:38:27;;;;;;;6.95;5.07;;;;;;;10.94;59.12;102544.63;5109835;28;20043;-72
2022/01/20 06:40:59;;;;;;;9.23;5.05;;;;;;;11.25;58.80;102550.34;5097050;28;20040;-72
2022/01/20 06:43:29;;;;;;;7.80;4.80;;;;;;;11.56;58.33;102556.06;5089088;28;20051;-72
2022/01/20 06:45:57;;;;;;;11.50;4.50;;;;;;;11.88;57.51;102546.78;5089160;28;20050;-72
2022/01/20 06:48:47;;;;;;;7.18;4.18;;;;;;;12.19;56.71;102553.25;5089409;28;20046;-72
2022/01/20 06:51:30;;;;;;;6.05;3.78;;;;;;;12.49;56.16;102565.00;5088858;28;20036;-74
2022/01/20 06:53:59;;;;;;;5.55;2.53;;;;;;;12.70;55.56;102565.78;5088576;28;20130;-73
2022/01/20 06:56:28;;;;;;;5.22;1.63;;;;;;;12.92;54.34;102556.84;5088865;28;20111;-73
2022/01/20 06:58:56;;;;;;;3.83;1.30;;;;;;;13.15;54.01;102560.28;5088730;28;20062;-72
2022/01/20 07:01:23;;;;;;;3.30;1.50;;;;;;;13.37;53.54;102554.88;5099406;28;20050;-72
2022/01/20 07:03:53;;;;;;;5.47;1.80;;;;;;;13.51;51.83;102550.94;5107270;28;20078;-72
2022/01/20 07:42:26;;;;;;;3.30;1.60;;;;;;;15.66;44.10;102544.59;5125260;27;20399;-70
2022/01/20 07:45:06;;;;;;;1.77;1.17;;;;;;;15.66;44.31;102549.94;5135764;27;20046;-69
2022/01/20 07:47:59;;;;;;;;;;;;;;;15.49;43.51;102540.63;5117791;28;20073;-69
2022/01/20 07:50:27;;;;;;;5.85;1.90;;;;;;;15.32;44.96;102552.59;5103714;27;19923;-70
2022/01/20 07:52:55;;;;;;;6.40;3.22;;;;;;;15.02;45.12;102548.31;5090082;28;20055;-70
2022/01/20 07:55:23;;;;;;;5.68;2.55;;;;;;;15.01;45.02;102559.81;5105393;28;20048;-70
2022/01/20 07:57:53;;;;;;;4.95;2.30;;;;;;;15.23;44.80;102557.72;5105290;28;20043;-70
2022/01/20 08:00:31;;;;;;;3.95;1.60;;;;;;;15.44;44.65;102545.81;5107938;28;20127;-70
2022/01/20 08:03:00;;;;;;;5.43;2.00;;;;;;;15.52;43.79;102557.59;5107146;27;20050;-71
2022/01/20 08:05:36;;;;;;;3.95;1.70;;;;;;;15.59;44.19;102550.66;5107337;28;20092;-69
2022/01/20 08:08:05;;;;;;;4.72;1.90;;;;;;;15.73;43.29;102546.56;5104090;27;20067;-69
2022/01/20 08:10:34;;;;;;;5.30;1.70;;;;;;;15.93;43.09;102537.25;5108565;28;20505;-68
2022/01/20 08:13:04;;;;;;;3.80;1.95;;;;;;;16.15;43.20;102529.69;5106668;28;20032;-68
2022/01/20 08:15:32;;;;;;;6.90;2.55;;;;;;;16.32;42.83;102533.63;5102113;28;20067;-68
2022/01/20 08:18:14;;;;;;;6.32;1.45;;;;;;;16.57;42.60;102535.91;5121629;27;20067;-68
2022/01/20 08:20:43;;;;;;;11.98;3.70;;;;;;;16.73;42.28;102542.50;5107335;27;20040;-68
2022/01/20 08:23:13;;;;;;;9.20;3.42;;;;;;;17.00;42.58;102537.63;5107343;28;20088;-68
2022/01/20 08:25:41;;;;;;;5.95;2.13;;;;;;;17.30;41.96;102537.28;5107488;28;20035;-68
2022/01/20 08:28:11;;;;;;;2.97;1.40;;;;;;;17.35;41.24;102540.91;5126827;27;20073;-68
2022/01/20 08:30:42;;;;;;;5.35;2.85;;;;;;;17.36;41.38;102540.03;5107487;27;20031;-68
2022/01/20 08:33:12;;;;;;;8.25;3.58;;;;;;;17.55;41.35;102538.56;5123986;28;20442;-68
2022/01/20 08:35:44;;;;;;;4.55;1.63;;;;;;;17.43;40.48;102544.63;5103941;27;20041;-68
2022/01/20 08:38:14;;;;;;;2.05;1.13;;;;;;;17.26;40.13;102558.56;5102331;28;20050;-69
2022/01/20 08:40:42;;;;;;;3.97;1.70;;;;;;;17.42;40.39;102548.16;5106718;27;20128;-69
2022/01/20 08:43:12;;;;;;;2.78;0.95;;;;;;;17.63;39.67;102544.06;5089312;28;20051;-69
2022/01/20 08:45:44;;;;;;;5.57;1.50;;;;;;;17.82;39.23;102533.66;5088630;28;20043;-69
2022/01/20 08:48:13;;;;;;;5.95;2.55;;;;;;;17.92;39.18;102537.34;5093727;28;20397;-69
2022/01/20 09:31:16;;;;;;;5.20;2.80;;;;;;;18.16;36.82;102510.97;5077078;27;20480;-68
2022/01/20 09:33:45;;;;;;;4.20;1.83;;;;;;;18.19;37.56;102508.31;5062478;28;20053;-70
2022/01/20 09:36:13;;;;;;;6.30;2.28;;;;;;;18.24;37.99;102509.28;5060572;28;20045;-70
2022/01/20 09:38:43;;;;;;;3.90;1.73;;;;;;;18.30;38.21;102509.38;5063842;28;20047;-71
2022/01/20 09:41:16;;;;;;;4.03;1.23;;;;;;;18.18;37.82;102508.31;5063020;28;20681;-71
2022/01/20 09:43:44;;;;;;;3.22;1.70;;;;;;;18.13;37.84;102502.00;5062753;28;20099;-71
2022/01/20 09:46:12;;;;;;;3.10;1.50;;;;;;;18.08;37.29;102509.06;5062808;28;20041;-71
2022/01/20 09:48:44;;;;;;;5.45;1.48;;;;;;;18.04;37.72;102505.47;5061523;28;20051;-71
2022/01/20 09:51:24;;;;;;;3.63;1.30;;;;;;;18.09;37.81;102498.41;5059144;28;20048;-71
2022/01/20 09:54:07;;;;;;;3.78;1.40;;;;;;;17.92;37.31;102491.91;5061866;28;20545;-71
2022/01/20 09:56:54;;;;;;;4.53;1.90;;;;;;;17.88;37.18;102496.34;5059005;28;20670;-71
2022/01/20 09:59:22;;;;;;;4.63;2.10;;;;;;;18.06;36.11;102500.13;5055831;28;20037;-67
2022/01/20 10:01:56;;;;;;;5.05;2.53;;;;;;;18.14;35.57;102498.44;5075182;28;20382;-68
2022/01/20 10:04:30;;;;;;;4.90;2.17;;;;;;;18.10;35.10;102485.94;5069795;28;20110;-68
2022/01/20 10:07:02;;;;;;;6.15;2.20;;;;;;;18.06;35.32;102471.63;5063385;28;20456;-68
2022/01/20 10:09:36;;;;;;;6.07;1.95;;;;;;;18.03;34.73;102468.91;5062723;28;20395;-67
2022/01/20 10:12:34;;;;;;;5.40;2.10;;;;;;;18.04;35.44;102465.38;5044252;28;20056;-71
2022/01/20 10:15:15;;;;;;;5.07;2.17;;;;;;;18.13;35.44;102461.88;5062269;28;20043;-71
2022/01/20 10:18:15;;;;;;;3.40;1.95;;;;;;;18.08;34.99;102459.16;5032990;28;20583;-71
2022/01/20 10:21:01;;;;;;;5.05;2.47;;;;;;;18.00;34.91;102455.50;5058560;28;20562;-71
2022/01/20 10:23:51;;;;;;;4.70;1.50;;;;;;;17.96;35.23;102456.34;5058761;28;20052;-71
2022/01/20 10:26:51;;;;;;;3.85;1.73;;;;;;;17.93;35.72;102453.63;5054463;28;20044;-70
2022/01/20 10:29:19;;;;;;;3.40;1.40;;;;;;;17.80;35.77;102446.34;5061979;28;20036;-70
2022/01/20 10:31:51;;;;;;;6.25;1.88;;;;;;;17.63;36.02;102445.22;5049882;28;20056;-70
2022/01/20 10:34:30;;;;;;;3.90;1.30;;;;;;;17.42;35.80;102436.00;5042450;28;20132;-71
2022/01/20 10:37:04;;;;;;;3.25;1.27;;;;;;;17.34;36.57;102426.06;5049161;28;20045;-71
2022/01/20 10:39:45;;;;;;;1.63;0.93;;;;;;;17.36;36.76;102419.00;5040116;28;20789;-71
2022/01/20 10:42:15;;;;;;;4.10;1.65;;;;;;;17.35;36.49;102423.44;5048656;28;20041;-71
2022/01/20 10:44:46;;;;;;;3.40;1.58;;;;;;;17.42;36.36;102413.75;5042264;28;20049;-71
2022/01/20 10:47:16;;;;;;;3.42;1.58;;;;;;;17.47;36.33;102401.34;5047090;28;20061;-71
2022/01/20 10:49:44;;;;;;;4.00;1.50;;;;;;;17.50;36.46;102407.63;5064649;28;20053;-71
2022/01/20 10:52:16;;;;;;;4.07;1.85;;;;;;;17.63;36.51;102406.06;5049273;28;20409;-71
2022/01/20 10:54:46;;;;;;;3.63;1.40;;;;;;;17.35;36.14;102402.06;5040574;28;20063;-71
2022/01/20 10:57:28;;;;;;;4.80;1.40;;;;;;;17.15;36.12;102398.22;5051347;28;20056;-71
2022/01/20 10:59:58;;;;;;;3.80;1.77;;;;;;;17.17;36.32;102399.16;5057288;28;20049;-71
2022/01/20 11:02:50;;;;;;;6.20;2.55;;;;;;;17.13;36.30;102384.84;5064645;28;20135;-71
2022/01/20 11:05:18;;;;;;;2.13;1.00;;;;;;;17.13;36.68;102389.31;5067589;28;20037;-71
2022/01/20 11:07:49;;;;;;;3.17;1.35;;;;;;;17.18;36.85;102389.38;5042473;28;20041;-70
2022/01/20 11:10:17;;;;;;;2.83;1.08;;;;;;;17.06;37.03;102385.66;5049492;28;20037;-70
2022/01/20 11:12:48;;;;;;;2.35;1.10;;;;;;;16.76;37.40;102389.59;5063084;28;20044;-71
2022/01/20 11:15:29;;;;;;;3.97;1.30;;;;;;;16.72;37.76;102392.22;5046344;28;20458;-69
2022/01/20 11:17:58;;;;;;;1.95;1.00;;;;;;;16.65;37.35;102378.75;5049478;28;20051;-71
2022/01/20 11:20:32;;;;;;;2.55;1.17;;;;;;;16.59;37.81;102386.63;5046091;28;20071;-71
2022/01/20 11:23:04;;;;;;;3.28;1.00;;;;;;;16.66;37.97;102376.13;5054052;28;20068;-71
2022/01/20 11:25:40;;;;;;;4.05;1.13;;;;;;;16.46;38.19;102380.19;5034079;28;20045;-70
2022/01/20 11:28:59;;;;;;;3.47;1.15;;;;;;;16.26;38.14;102373.59;5039319;28;20540;-70
2022/01/20 11:31:53;;;;;;;4.72;1.17;;;;;;;16.00;38.53;102372.22;5047009;28;20256;-70
2022/01/20 11:34:35;;;;;;;1.77;1.00;;;;;;;15.84;38.36;102373.66;5065317;28;20400;-70
2022/01/20 11:37:08;;;;;;;3.90;1.40;;;;;;;15.77;38.42;102363.75;5047829;28;20052;-70
2022/01/20 11:39:38;;;;;;;2.63;1.10;;;;;;;15.73;38.86;102360.16;5059038;28;20049;-70
2022/01/20 11:42:06;;;;;;;2.70;1.40;;;;;;;15.82;38.83;102367.41;5046673;28;20049;-71
2022/01/20 11:44:34;;;;;;;3.35;1.27;;;;;;;15.74;39.01;102361.03;5042709;28;20124;-70
2022/01/20 11:47:08;;;;;;;4.07;1.52;;;;;;;15.79;38.89;102360.25;5049685;28;20629;-70
2022/01/20 11:49:38;;;;;;;6.75;2.40;;;;;;;15.90;38.87;102364.03;5067747;28;20045;-70
2022/01/20 11:52:06;;;;;;;3.60;1.63;;;;;;;16.15;38.98;102360.06;5067971;28;20041;-70
2022/01/20 11:54:35;;;;;;;3.95;1.48;;;;;;;16.20;38.65;102362.81;5068865;28;20048;-70
2022/01/20 11:57:14;;;;;;;4.13;1.77;;;;;;;16.19;38.83;102361.03;5068828;28;20048;-70
2022/01/20 11:59:43;;;;;;;19.17;10.93;;;;;;;16.08;39.17;102370.59;5067029;28;20071;-70
2022/01/20 12:02:12;;;;;;;164.43;85.18;;;;;;;15.96;39.60;102365.91;5068220;28;20098;-70
2022/01/20 12:04:43;;;;;;;117.30;59.85;;;;;;;15.89;39.79;102348.91;5066760;28;20139;-70
2022/01/20 12:07:27;;;;;;;80.18;43.38;;;;;;;15.87;39.92;102358.66;5067085;28;20082;-70
2022/01/20 12:10:07;;;;;;;9.88;4.45;;;;;;;15.72;39.59;102354.78;5063846;28;20053;-70
2022/01/20 12:12:38;;;;;;;7.57;2.65;;;;;;;15.59;39.66;102353.63;5067799;28;20048;-71
2022/01/20 12:15:12;;;;;;;7.40;2.33;;;;;;;15.50;39.77;102348.06;5069306;28;20051;-71
2022/01/20 12:17:41;;;;;;;4.32;2.13;;;;;;;15.42;39.98;102349.69;5066960;28;20051;-71
2022/01/20 12:20:11;;;;;;;7.93;3.47;;;;;;;15.26;40.16;102342.25;5054779;28;20515;-71
2022/01/20 12:22:43;;;;;;;5.70;2.15;;;;;;;15.22;40.20;102332.41;5067750;28;20048;-71
2022/01/20 12:25:16;;;;;;;10.75;4.75;;;;;;;15.18;40.30;102339.41;5066551;28;20037;-71
2022/01/20 12:27:46;;;;;;;4.68;2.13;;;;;;;15.19;40.34;102340.31;5066937;28;20041;-71
2022/01/20 12:30:22;;;;;;;5.50;2.47;;;;;;;15.25;40.20;102337.78;5064408;28;20421;-71
2022/01/20 12:33:00;;;;;;;6.35;2.20;;;;;;;15.29;40.08;102332.56;5067013;28;20058;-71
2022/01/20 12:35:41;;;;;;;8.13;4.22;;;;;;;15.35;39.90;102339.78;5067730;28;20053;-71
2022/01/20 12:38:17;;;;;;;8.82;3.70;;;;;;;15.40;40.06;102339.00;5065837;28;20055;-71
2022/01/20 12:40:48;;;;;;;6.28;2.33;;;;;;;15.31;39.97;102341.47;5064246;28;20044;-71
2022/01/20 12:43:19;;;;;;;5.70;2.80;;;;;;;15.27;40.22;102344.94;5066626;28;20400;-72
2022/01/20 12:45:57;;;;;;;5.65;1.90;;;;;;;15.28;40.16;102333.44;5066174;28;20056;-71
2022/01/20 12:48:25;;;;;;;7.57;3.00;;;;;;;15.39;40.00;102342.53;5065261;28;20046;-71
2022/01/20 12:50:55;;;;;;;7.50;3.22;;;;;;;15.24;40.08;102333.31;5066388;28;20047;-71
2022/01/20 12:53:41;;;;;;;7.20;2.92;;;;;;;15.04;40.65;102333.78;5064486;28;20111;-71
2022/01/20 12:56:11;;;;;;;5.32;2.28;;;;;;;15.03;40.82;102323.13;5065785;28;20056;-71
2022/01/20 12:58:59;;;;;;;9.27;3.45;;;;;;;15.03;40.97;102316.00;5066078;28;20144;-71
2022/01/20 13:01:37;;;;;;;5.38;2.25;;;;;;;14.86;41.13;102312.09;5068593;28;20392;-70
2022/01/20 13:04:06;;;;;;;6.57;2.58;;;;;;;14.67;41.67;102315.19;5066680;28;20045;-70
2022/01/20 13:06:33;;;;;;;4.65;2.10;;;;;;;14.73;41.79;102307.34;5048508;28;20037;-70
2022/01/20 13:09:06;;;;;;;5.72;2.88;;;;;;;14.77;42.29;102303.88;5049094;28;20045;-71
2022/01/20 13:11:40;;;;;;;5.85;3.38;;;;;;;14.77;42.34;102297.69;5048346;28;20128;-71
2022/01/20 13:14:11;;;;;;;7.10;3.05;;;;;;;14.72;42.03;102293.16;5047005;28;20073;-71
2022/01/20 13:16:49;;;;;;;5.78;2.75;;;;;;;14.74;42.25;102291.44;5049633;28;20048;-70
2022/01/20 13:19:17;;;;;;;8.95;4.10;;;;;;;14.77;42.66;102285.28;5046471;28;20040;-71
2022/01/20 13:21:51;;;;;;;6.88;3.15;;;;;;;14.77;43.12;102286.19;5045332;28;20049;-70
2022/01/20 13:24:26;;;;;;;3.80;2.33;;;;;;;14.77;44.29;102284.41;5044291;28;20049;-70
2022/01/20 13:26:56;;;;;;;3.22;1.45;;;;;;;14.76;44.92;102270.22;5048454;28;20057;-70
2022/01/20 13:29:26;;;;;;;5.75;1.40;;;;;;;14.73;45.56;102271.03;5048535;28;20124;-70
2022/01/20 13:31:57;;;;;;;4.80;2.00;;;;;;;14.73;45.44;102270.13;5048576;28;20080;-71
2022/01/20 13:34:25;;;;;;;3.65;1.73;;;;;;;14.69;46.29;102271.84;5047756;28;20041;-70
2022/01/20 13:36:54;;;;;;;3.75;1.40;;;;;;;14.65;46.44;102269.03;5048779;28;20123;-70
2022/01/20 13:39:34;;;;;;;4.50;1.63;;;;;;;14.63;46.50;102268.13;5048524;28;20045;-70
2022/01/20 13:42:25;;;;;;;4.18;1.38;;;;;;;14.61;46.70;102264.53;5048184;28;20048;-70
2022/01/20 13:45:13;;;;;;;6.10;1.77;;;;;;;14.58;47.07;102261.78;5029253;28;20100;-70
2022/01/20 13:47:51;;;;;;;3.90;1.55;;;;;;;14.60;47.11;102260.06;5047791;28;20041;-71
2022/01/20 13:50:21;;;;;;;2.88;1.55;;;;;;;14.57;47.12;102260.91;5048218;28;20136;-70
2022/01/20 13:52:48;;;;;;;4.75;1.55;;;;;;;14.57;47.67;102249.41;5054060;28;20045;-71
2022/01/20 13:55:20;;;;;;;2.33;1.50;;;;;;;14.51;47.60;102251.88;5065162;28;20047;-71
2022/01/20 13:57:48;;;;;;;3.42;1.38;;;;;;;14.48;47.92;102254.47;5065379;28;20044;-70
2022/01/20 14:00:21;;;;;;;4.72;1.35;;;;;;;14.45;47.96;102244.66;5066597;28;20045;-70
2022/01/20 14:02:50;;;;;;;5.83;1.33;;;;;;;14.35;48.30;102246.19;5066233;28;20059;-70
2022/01/20 14:05:19;;;;;;;3.03;1.13;;;;;;;14.34;48.27;102246.16;5066176;28;20365;-71